createdAt,value
2019-01-30T01:06:48.935Z,-0.10
2019-01-30T02:38:09.754Z,-0.10
2019-01-30T04:05:32.291Z,-1.30
2019-01-30T06:07:35.843Z,-0.50
2019-01-30T06:10:11.741Z,-0.50
2019-01-30T06:15:12.837Z,-0.50
2019-01-30T06:17:43.750Z,-0.50
2019-01-30T06:25:48.395Z,-0.40
2019-01-30T06:28:19.301Z,-0.40
2019-01-30T06:33:24.710Z,-0.40
2019-01-30T06:38:28.604Z,-0.40
2019-01-30T06:40:59.108Z,-0.40
2019-01-30T06:45:59.228Z,-0.40
2019-01-30T06:48:30.717Z,-0.40
2019-01-30T06:51:02.843Z,-0.30
2019-01-30T06:53:37.248Z,-0.20
2019-01-30T06:56:10.434Z,0.10
2019-01-30T06:58:41.578Z,0.40
2019-01-30T07:01:12.036Z,0.70
2019-01-30T07:03:42.898Z,0.80
2019-01-30T07:06:15.058Z,1.10
2019-01-30T07:11:17.898Z,1.40
2019-01-30T07:13:50.505Z,1.30
2019-01-30T07:16:23.391Z,1.40
2019-01-30T07:18:55.942Z,1.60
2019-01-30T07:21:31.176Z,1.70
2019-01-30T07:26:33.168Z,2.00
2019-01-30T07:29:06.027Z,2.50
2019-01-30T07:31:41.209Z,3.50
2019-01-30T07:34:12.487Z,3.60
2019-01-30T07:39:14.349Z,3.80
2019-01-30T07:41:46.518Z,3.80
2019-01-30T07:44:20.359Z,4.10
2019-01-30T07:47:20.066Z,4.50
2019-01-30T07:49:58.653Z,4.40
2019-01-30T07:52:55.086Z,5.00
2019-01-30T07:58:55.497Z,5.30
2019-01-30T08:02:03.376Z,5.40
2019-01-30T08:04:50.326Z,5.60
2019-01-30T08:07:27.686Z,4.90
2019-01-30T08:10:00.848Z,5.40
2019-01-30T08:12:31.613Z,6.00
2019-01-30T08:15:02.393Z,5.80
2019-01-30T08:17:37.121Z,6.20
2019-01-30T08:20:09.739Z,6.00
2019-01-30T08:23:13.994Z,6.30
2019-01-30T08:25:43.768Z,6.20
2019-01-30T08:28:15.967Z,6.50
2019-01-30T08:33:17.568Z,6.80
2019-01-30T08:35:49.421Z,7.10
2019-01-30T08:38:20.012Z,7.30
2019-01-30T08:40:52.328Z,7.80
2019-01-30T08:43:24.375Z,7.60
2019-01-30T08:45:55.338Z,8.40
2019-01-30T08:48:28.532Z,9.00
2019-01-30T08:50:58.236Z,7.60
2019-01-30T08:53:28.608Z,8.70
2019-01-30T08:55:59.023Z,9.00
2019-01-30T08:58:31.041Z,8.50
2019-01-30T09:01:01.436Z,9.50
2019-01-30T09:03:31.817Z,9.90
2019-01-30T09:06:02.290Z,10.50
2019-01-30T09:08:33.063Z,10.40
2019-01-30T09:11:03.521Z,11.30
2019-01-30T09:13:33.924Z,11.50
2019-01-30T09:16:04.843Z,11.80
2019-01-30T09:18:35.212Z,11.10
2019-01-30T09:21:05.819Z,11.00
2019-01-30T09:23:36.172Z,10.30
2019-01-30T09:26:06.549Z,10.60
2019-01-30T09:28:37.295Z,11.20
2019-01-30T09:31:07.672Z,11.20
2019-01-30T09:33:38.089Z,11.70
2019-01-30T09:36:09.716Z,11.20
2019-01-30T09:38:40.490Z,11.30
2019-01-30T09:41:10.913Z,11.80
2019-01-30T09:43:41.497Z,11.50
2019-01-30T09:46:12.207Z,11.70
2019-01-30T09:48:44.607Z,12.10
2019-01-30T09:51:15.072Z,11.20
2019-01-30T09:53:45.517Z,10.40
2019-01-30T09:56:17.376Z,11.50
2019-01-30T10:01:18.265Z,12.40
2019-01-30T10:03:50.626Z,14.20
2019-01-30T10:06:21.000Z,14.00
2019-01-30T10:08:51.398Z,14.90
2019-01-30T10:11:21.860Z,14.40
2019-01-30T10:13:53.224Z,12.30
2019-01-30T10:16:23.644Z,12.70
2019-01-30T10:18:54.191Z,11.90
2019-01-30T10:21:24.608Z,12.10
2019-01-30T10:23:54.964Z,11.80
2019-01-30T10:26:25.435Z,11.60
2019-01-30T10:28:55.879Z,13.10
2019-01-30T10:31:26.265Z,13.00
2019-01-30T10:33:56.648Z,13.50
2019-01-30T10:36:27.043Z,13.70
2019-01-30T10:38:57.432Z,13.30
2019-01-30T10:41:28.208Z,13.40
2019-01-30T10:43:58.643Z,13.90
2019-01-30T10:46:29.068Z,14.10
2019-01-30T10:48:59.519Z,14.20
2019-01-30T10:51:29.882Z,12.10
2019-01-30T10:54:00.460Z,11.70
2019-01-30T10:56:30.899Z,12.80
2019-01-30T10:59:01.256Z,13.00
2019-01-30T11:01:31.620Z,12.40
2019-01-30T11:04:02.079Z,12.30
2019-01-30T11:06:35.027Z,13.50
2019-01-30T11:09:09.257Z,14.00
2019-01-30T11:11:39.703Z,14.00
2019-01-30T11:14:10.088Z,13.10
2019-01-30T11:16:41.512Z,12.80
2019-01-30T11:19:12.048Z,13.50
2019-01-30T11:21:42.420Z,13.20
2019-01-30T11:24:12.804Z,13.10
2019-01-30T11:26:43.365Z,12.60
2019-01-30T11:29:13.803Z,12.30
2019-01-30T11:31:44.200Z,11.50
2019-01-30T11:34:15.084Z,11.50
2019-01-30T11:36:45.455Z,11.10
2019-01-30T11:39:15.856Z,11.40
2019-01-30T11:41:46.223Z,10.20
2019-01-30T11:44:16.925Z,9.80
2019-01-30T11:46:47.326Z,9.30
2019-01-30T11:49:17.759Z,10.20
2019-01-30T11:51:48.196Z,9.20
2019-01-30T11:54:18.712Z,7.80
2019-01-30T11:56:50.235Z,5.80
2019-01-30T11:59:20.742Z,4.20
2019-01-30T12:01:51.191Z,3.60
2019-01-30T12:04:21.583Z,3.40
2019-01-30T12:06:52.043Z,3.20
2019-01-30T12:09:22.392Z,3.20
2019-01-30T12:11:53.016Z,3.10
2019-01-30T12:14:23.428Z,2.90
2019-01-30T12:16:53.883Z,2.70
2019-01-30T12:19:24.370Z,2.70
2019-01-30T12:21:54.787Z,2.90
2019-01-30T12:24:25.189Z,2.90
2019-01-30T12:26:56.088Z,2.70
2019-01-30T12:29:26.536Z,2.70
2019-01-30T12:31:57.297Z,2.60
2019-01-30T12:34:28.579Z,2.50
2019-01-30T12:39:28.983Z,2.50
2019-01-30T12:42:00.036Z,2.50
2019-01-30T12:44:30.472Z,2.50
2019-01-30T12:47:00.811Z,2.40
2019-01-30T12:49:31.251Z,2.20
2019-01-30T12:52:01.657Z,2.10
2019-01-30T12:54:32.111Z,2.10
2019-01-30T12:57:02.515Z,2.00
2019-01-30T12:59:32.963Z,2.00
2019-01-30T13:02:03.303Z,2.00
2019-01-30T13:04:38.785Z,2.10
2019-01-30T13:07:05.796Z,2.00
2019-01-30T13:09:36.131Z,2.00
2019-01-30T13:12:06.631Z,1.90
2019-01-30T13:14:37.032Z,1.90
2019-01-30T13:17:07.384Z,1.70
2019-01-30T13:19:37.807Z,1.70
2019-01-30T13:22:08.152Z,1.70
2019-01-30T13:24:38.570Z,1.70
2019-01-30T13:27:09.063Z,1.70
2019-01-30T13:29:39.471Z,1.70
2019-01-30T13:32:09.841Z,1.60
2019-01-30T13:34:48.740Z,1.60
2019-01-30T13:37:15.000Z,1.60
2019-01-30T13:39:45.715Z,1.50
2019-01-30T13:42:16.078Z,1.40
2019-01-30T13:44:46.420Z,1.40
2019-01-30T13:47:16.867Z,1.30
2019-01-30T13:49:47.251Z,1.30
2019-01-30T13:52:17.647Z,1.20
2019-01-30T13:57:17.703Z,1.30
2019-01-30T13:59:48.358Z,1.30
2019-01-30T14:02:18.783Z,1.30
2019-01-30T14:04:59.103Z,1.20
2019-01-30T14:07:21.213Z,1.20
2019-01-30T14:12:22.843Z,1.20
2019-01-30T14:14:53.431Z,1.00
2019-01-30T14:17:23.828Z,1.00
2019-01-30T14:19:54.316Z,1.00
2019-01-30T14:22:24.680Z,0.90
2019-01-30T14:27:24.655Z,0.80
2019-01-30T14:32:27.456Z,0.60
2019-01-30T14:34:57.854Z,0.60
2019-01-30T14:37:28.407Z,0.60
2019-01-30T14:39:58.842Z,0.50
2019-01-30T14:42:29.285Z,0.40
2019-01-30T14:44:59.664Z,0.30
2019-01-30T14:47:30.063Z,0.30
2019-01-30T14:50:00.427Z,0.30
2019-01-30T14:52:30.831Z,0.20
2019-01-30T14:55:01.251Z,0.20
2019-01-30T14:57:32.827Z,0.10
2019-01-30T15:00:05.158Z,0.10
2019-01-30T15:02:36.831Z,0.00
2019-01-30T15:05:09.258Z,0.00
2019-01-30T15:07:39.666Z,-0.10
2019-01-30T15:10:12.036Z,-0.20
2019-01-30T15:12:42.496Z,-0.20
2019-01-30T15:15:15.223Z,-0.20
2019-01-30T15:17:46.689Z,-0.30
2019-01-30T15:20:22.140Z,-0.30
2019-01-30T15:22:53.466Z,-0.40
2019-01-30T15:25:24.088Z,-0.40
2019-01-30T15:27:54.560Z,-0.50
2019-01-30T15:30:30.260Z,-0.50
2019-01-30T15:33:01.011Z,-0.60
2019-01-30T15:35:33.674Z,-0.60
2019-01-30T15:38:05.743Z,-0.70
2019-01-30T15:40:36.257Z,-0.70
2019-01-30T15:43:06.620Z,-0.80
2019-01-30T15:45:37.061Z,-0.90
2019-01-30T15:48:07.742Z,-0.90
2019-01-30T15:50:39.008Z,-1.00
2019-01-30T15:53:19.091Z,-1.00
2019-01-30T15:55:49.483Z,-1.00
2019-01-30T15:58:19.848Z,-1.00
2019-01-30T16:01:13.907Z,-1.10
2019-01-30T16:03:44.262Z,-1.10
2019-01-30T16:06:14.616Z,-1.10
2019-01-30T16:08:45.147Z,-1.10
2019-01-30T16:11:15.499Z,-1.10
2019-01-30T16:13:45.951Z,-1.10
2019-01-30T16:16:16.376Z,-1.20
2019-01-30T16:18:46.748Z,-1.20
2019-01-30T16:21:17.108Z,-1.20
2019-01-30T16:23:47.500Z,-1.20
2019-01-30T16:26:17.926Z,-1.20
2019-01-30T16:28:48.352Z,-1.20
2019-01-30T16:31:18.747Z,-1.20
2019-01-30T16:33:49.120Z,-1.20
2019-01-30T16:36:19.470Z,-1.20
2019-01-30T16:38:49.902Z,-1.20
2019-01-30T16:41:20.388Z,-1.30
2019-01-30T16:43:50.747Z,-1.30
2019-01-30T16:46:21.464Z,-1.30
2019-01-30T16:48:51.827Z,-1.30
2019-01-30T16:51:22.203Z,-1.30
2019-01-30T16:53:52.639Z,-1.30
2019-01-30T16:56:22.987Z,-1.30
2019-01-30T16:58:53.364Z,-1.40
2019-01-30T17:01:23.875Z,-1.40
2019-01-30T17:06:23.956Z,-1.40
2019-01-30T17:11:24.039Z,-1.50
2019-01-30T17:16:24.091Z,-1.50
2019-01-30T17:21:24.079Z,-1.50
2019-01-30T17:26:24.107Z,-1.60
2019-01-30T17:31:30.049Z,-1.60
2019-01-30T17:34:00.496Z,-1.60
2019-01-30T17:36:31.965Z,-1.60
2019-01-30T17:39:02.339Z,-1.60
2019-01-30T17:41:34.587Z,-1.60
2019-01-30T17:44:05.035Z,-1.70
2019-01-30T17:46:35.377Z,-1.70
2019-01-30T17:49:05.763Z,-1.70
2019-01-30T17:51:36.183Z,-1.70
2019-01-30T17:54:06.563Z,-1.80
2019-01-30T17:56:37.987Z,-1.80
2019-01-30T17:59:08.535Z,-1.80
2019-01-30T18:01:38.954Z,-1.90
2019-01-30T18:04:09.470Z,-1.90
2019-01-30T18:06:39.837Z,-1.80
2019-01-30T18:09:10.923Z,-1.90
2019-01-30T18:11:41.361Z,-1.90
2019-01-30T18:14:12.127Z,-1.90
2019-01-30T18:17:04.106Z,-1.90
2019-01-30T18:19:34.720Z,-1.90
2019-01-30T18:22:05.494Z,-1.90
2019-01-30T18:24:36.137Z,-1.90
2019-01-30T18:27:06.496Z,-1.80
2019-01-30T18:29:38.452Z,-1.90
2019-01-30T18:32:09.060Z,-1.80
2019-01-30T18:37:11.132Z,-1.90
2019-01-30T18:39:42.599Z,-1.90
2019-01-30T18:42:13.180Z,-2.00
2019-01-30T18:44:43.827Z,-1.90
2019-01-30T18:47:14.391Z,-1.90
2019-01-30T18:49:44.764Z,-1.90
2019-01-30T18:52:15.646Z,-1.90
2019-01-30T18:54:46.585Z,-1.90
2019-01-30T18:57:17.172Z,-1.90
2019-01-30T18:59:47.668Z,-2.00
2019-01-30T19:02:18.224Z,-2.00
2019-01-30T19:04:48.792Z,-2.00
2019-01-30T19:07:19.143Z,-1.90
2019-01-30T19:10:08.645Z,-1.90
2019-01-30T19:12:38.999Z,-1.90
2019-01-30T19:15:13.460Z,-1.90
2019-01-30T19:17:43.843Z,-1.90
2019-01-30T19:20:35.003Z,-1.90
2019-01-30T19:23:06.999Z,-1.90
2019-01-30T19:25:37.715Z,-1.80
2019-01-30T19:28:08.777Z,-1.80
2019-01-30T19:30:39.586Z,-1.80
2019-01-30T19:38:11.696Z,-1.80
2019-01-30T19:40:42.072Z,-1.80
2019-01-30T19:43:15.268Z,-1.80
2019-01-30T19:45:45.656Z,-1.80
2019-01-30T19:48:18.895Z,-1.80
2019-01-30T19:58:18.396Z,-1.90
2019-01-30T20:03:24.151Z,-2.00
2019-01-30T20:05:54.492Z,-2.00
2019-01-30T20:08:24.904Z,-2.00
2019-01-30T20:10:55.431Z,-2.00
2019-01-30T20:13:25.779Z,-2.00
2019-01-30T20:15:56.227Z,-2.00
2019-01-30T20:18:26.576Z,-2.10
2019-01-30T20:23:26.735Z,-1.90
2019-01-30T20:28:26.832Z,-1.90
2019-01-30T20:33:27.090Z,-1.90
2019-01-30T20:38:27.132Z,-1.80
2019-01-30T20:40:59.019Z,-1.90
2019-01-30T20:43:29.399Z,-1.90
2019-01-30T20:45:59.755Z,-1.90
2019-01-30T20:48:30.140Z,-1.90
2019-01-30T20:51:00.486Z,-1.80
2019-01-30T20:56:00.511Z,-1.70
2019-01-30T21:01:01.552Z,-1.80
2019-01-30T21:03:32.975Z,-1.80
2019-01-30T21:06:03.719Z,-1.80
2019-01-30T21:08:34.084Z,-1.80
2019-01-30T21:11:04.539Z,-1.80
2019-01-30T21:13:34.892Z,-1.70
2019-01-30T21:16:05.372Z,-1.70
2019-01-30T21:18:35.797Z,-1.80
2019-01-30T21:23:35.805Z,-1.80
2019-01-30T21:26:06.467Z,-1.80
2019-01-30T21:28:36.891Z,-1.80
2019-01-30T21:33:37.119Z,-1.80
2019-01-30T21:38:37.292Z,-1.70
2019-01-30T21:43:37.759Z,-1.70
2019-01-30T21:46:08.109Z,-1.60
2019-01-30T21:48:38.511Z,-1.50
2019-01-30T21:51:08.911Z,-1.40
2019-01-30T21:56:09.935Z,-1.10
2019-01-30T21:58:40.531Z,-1.10
2019-01-30T22:01:12.075Z,-0.90
2019-01-30T22:03:43.869Z,-0.80
2019-01-30T22:06:14.345Z,-0.70
2019-01-30T22:08:44.819Z,-0.70
2019-01-30T22:11:15.167Z,-0.60
2019-01-30T22:13:45.508Z,-0.60
2019-01-30T22:21:17.847Z,-0.40
2019-01-30T22:23:48.192Z,-0.40
2019-01-30T22:26:19.707Z,-0.40
2019-01-30T22:31:19.687Z,-0.30
2019-01-30T22:33:50.040Z,-0.40
2019-01-30T22:36:20.388Z,-0.40
2019-01-30T22:38:50.827Z,-0.50
2019-01-30T22:43:50.791Z,-0.40
2019-01-30T22:46:21.137Z,-0.50
2019-01-30T22:48:51.479Z,-0.40
2019-01-30T22:51:21.824Z,-0.40
2019-01-30T22:53:52.275Z,-0.40
2019-01-30T22:56:22.611Z,-0.30
2019-01-30T22:58:52.983Z,-0.30
2019-01-30T23:02:05.901Z,-0.30
2019-01-30T23:05:16.999Z,-0.30
2019-01-30T23:08:23.152Z,-0.30
2019-01-30T23:11:21.559Z,-0.30
2019-01-30T23:14:01.579Z,-0.30
2019-01-30T23:17:01.123Z,-0.30
2019-01-30T23:19:36.742Z,-0.30
2019-01-30T23:22:26.549Z,-0.30
2019-01-30T23:25:37.499Z,-0.30
2019-01-30T23:28:31.564Z,-0.30
2019-01-30T23:31:27.047Z,-0.30
2019-01-30T23:34:40.994Z,-0.40
2019-01-30T23:37:26.007Z,-0.40
2019-01-30T23:40:30.852Z,-0.40
2019-01-30T23:43:30.027Z,-0.40
2019-01-30T23:49:42.167Z,-0.40
2019-01-30T23:52:36.163Z,-0.40
2019-01-30T23:55:25.942Z,-0.40
2019-01-30T23:58:12.040Z,-0.50
